H125 CYYC-CYYC
Flight info
| Callsign | H125 |
|---|---|
| Flight time | 0h 0m |
| Altitude | 12000 |
| Route | IPSIT Q810 EPLAN DCT KODIT DCT MATIR FLAAM7 |
| Aircraft | H160/L-SBDGRY/S |
Departure
| Time | 2026-05-04 22:53 |
|---|---|
| Airport | Calgary International Airport (CYYC) |
Arrival
| Time | 2026-05-04 22:54 |
|---|---|
| Airport | Calgary International Airport (CYYC) |
| Time | Latitude | Longitude | Altitude | Speed | Heading |
|---|---|---|---|---|---|
| 2026-05-04 22:32 | 51.13156 | -114.02571 | 3553 ft | 0 kts | 268° |
| 2026-05-04 22:34 | 51.13083 | -114.02644 | 3614 ft | 31 kts | 252° |
| 2026-05-04 22:34 | 51.12762 | -114.02916 | 3689 ft | 75 kts | 222° |
| 2026-05-04 22:34 | 51.12274 | -114.03447 | 3724 ft | 99 kts | 228° |
| 2026-05-04 22:34 | 51.11762 | -114.04277 | 3704 ft | 109 kts | 237° |
| 2026-05-04 22:35 | 51.11008 | -114.04790 | 3647 ft | 128 kts | 175° |
| 2026-05-04 22:35 | 51.10114 | -114.04541 | 3589 ft | 129 kts | 158° |
| 2026-05-04 22:35 | 51.09345 | -114.04042 | 3597 ft | 116 kts | 161° |
| 2026-05-04 22:35 | 51.08582 | -114.03841 | 3590 ft | 102 kts | 161° |
| 2026-05-04 22:36 | 51.08024 | -114.03325 | 3603 ft | 89 kts | 135° |
| 2026-05-04 22:36 | 51.07510 | -114.02831 | 3608 ft | 89 kts | 154° |
| 2026-05-04 22:36 | 51.06896 | -114.02784 | 3591 ft | 85 kts | 184° |
| 2026-05-04 22:36 | 51.06329 | -114.02832 | 3586 ft | 78 kts | 175° |
| 2026-05-04 22:37 | 51.05910 | -114.02538 | 3567 ft | 63 kts | 134° |
| 2026-05-04 22:37 | 51.05515 | -114.02209 | 3589 ft | 65 kts | 136° |
| 2026-05-04 22:37 | 51.05054 | -114.02051 | 3731 ft | 78 kts | 208° |
| 2026-05-04 22:37 | 51.04793 | -114.02663 | 3934 ft | 70 kts | 277° |
| 2026-05-04 22:38 | 51.04775 | -114.03611 | 3633 ft | 99 kts | 301° |
| 2026-05-04 22:38 | 51.04947 | -114.04694 | 3544 ft | 106 kts | 297° |
| 2026-05-04 22:38 | 51.05130 | -114.05752 | 3554 ft | 92 kts | 302° |
| 2026-05-04 22:38 | 51.05380 | -114.06611 | 3632 ft | 82 kts | 313° |
| 2026-05-04 22:39 | 51.05411 | -114.07406 | 3896 ft | 75 kts | 224° |
| 2026-05-04 22:39 | 51.05045 | -114.07562 | 4072 ft | 62 kts | 181° |
| 2026-05-04 22:39 | 51.04523 | -114.07589 | 4022 ft | 83 kts | 175° |
| 2026-05-04 22:39 | 51.04147 | -114.07163 | 4090 ft | 36 kts | 32° |
| 2026-05-04 22:40 | 51.04219 | -114.07212 | 4091 ft | 28 kts | 333° |
| 2026-05-04 22:40 | 51.04291 | -114.07546 | 4092 ft | 21 kts | 339° |
| 2026-05-04 22:40 | 51.04353 | -114.07491 | 3882 ft | 10 kts | 30° |
| 2026-05-04 22:40 | 51.04354 | -114.07485 | 3800 ft | 5 kts | 16° |
| 2026-05-04 22:41 | 51.04368 | -114.07466 | 3821 ft | 3 kts | 25° |
| 2026-05-04 22:41 | 51.04380 | -114.07458 | 3802 ft | 1 kts | 14° |
| 2026-05-04 22:41 | 51.04378 | -114.07459 | 3800 ft | 1 kts | 13° |
| 2026-05-04 22:41 | 51.04383 | -114.07457 | 3785 ft | 0 kts | 79° |
| 2026-05-04 22:44 | 51.04370 | -114.07396 | 3850 ft | 26 kts | 43° |
| 2026-05-04 22:44 | 51.04332 | -114.06783 | 3826 ft | 72 kts | 96° |
| 2026-05-04 22:44 | 51.04349 | -114.06355 | 3994 ft | 25 kts | 21° |
| 2026-05-04 22:45 | 51.04397 | -114.06286 | 4083 ft | 24 kts | 274° |
| 2026-05-04 22:45 | 51.04467 | -114.06190 | 3998 ft | 55 kts | 78° |
| 2026-05-04 22:45 | 51.03973 | -114.06189 | 3835 ft | 92 kts | 193° |
| 2026-05-04 22:46 | 51.03387 | -114.05921 | 3806 ft | 65 kts | 232° |
| 2026-05-04 22:46 | 51.03340 | -114.06146 | 3639 ft | 34 kts | 18° |
| 2026-05-04 22:46 | 51.03613 | -114.06115 | 3542 ft | 46 kts | 8° |
| 2026-05-04 22:46 | 51.03928 | -114.06091 | 3514 ft | 44 kts | 8° |
| 2026-05-04 22:47 | 51.04178 | -114.06187 | 3544 ft | 42 kts | 321° |
| 2026-05-04 22:47 | 51.04284 | -114.06565 | 3550 ft | 27 kts | 329° |
| 2026-05-04 22:47 | 51.04352 | -114.06926 | 3579 ft | 49 kts | 304° |
| 2026-05-04 22:47 | 51.04518 | -114.07139 | 3622 ft | 27 kts | 8° |
| 2026-05-04 22:48 | 51.04715 | -114.07186 | 3605 ft | 23 kts | 19° |
| 2026-05-04 22:48 | 51.04862 | -114.07076 | 3636 ft | 24 kts | 20° |
| 2026-05-04 22:48 | 51.04936 | -114.06848 | 3693 ft | 35 kts | 76° |
| 2026-05-04 22:48 | 51.05000 | -114.06537 | 4009 ft | 51 kts | 57° |
| 2026-05-04 22:49 | 51.04621 | -114.05805 | 3983 ft | 122 kts | 134° |
| 2026-05-04 22:49 | 51.03940 | -114.05060 | 3926 ft | 84 kts | 156° |
| 2026-05-04 22:49 | 51.03607 | -114.04867 | 3785 ft | 17 kts | 334° |
| 2026-05-04 22:49 | 51.03588 | -114.04967 | 3529 ft | 21 kts | 333° |
| 2026-05-04 22:50 | 51.03638 | -114.05352 | 3622 ft | 53 kts | 312° |
| 2026-05-04 22:50 | 51.03677 | -114.06147 | 3625 ft | 80 kts | 293° |
| 2026-05-04 22:50 | 51.03697 | -114.06934 | 3680 ft | 61 kts | 307° |
| 2026-05-04 22:50 | 51.03758 | -114.07503 | 3597 ft | 52 kts | 296° |
| 2026-05-04 22:51 | 51.03719 | -114.07962 | 3558 ft | 29 kts | 327° |
| 2026-05-04 22:51 | 51.03761 | -114.08139 | 3543 ft | 15 kts | 350° |
| 2026-05-04 22:51 | 51.03917 | -114.08172 | 3528 ft | 29 kts | 11° |
| 2026-05-04 22:51 | 51.04132 | -114.08161 | 3534 ft | 33 kts | 10° |
| 2026-05-04 22:52 | 51.04361 | -114.08121 | 3566 ft | 36 kts | 9° |
| 2026-05-04 22:52 | 51.04648 | -114.08118 | 3550 ft | 43 kts | 8° |
| 2026-05-04 22:52 | 51.04937 | -114.08112 | 3522 ft | 40 kts | 7° |
| 2026-05-04 22:52 | 51.05003 | -114.08474 | 3535 ft | 53 kts | 280° |
| 2026-05-04 22:53 | 51.04811 | -114.08942 | 3569 ft | 42 kts | 205° |
| 2026-05-04 22:53 | 51.04584 | -114.09040 | 3487 ft | 12 kts | 153° |
| 2026-05-04 22:53 | 51.04446 | -114.08977 | 4256 ft | 0 kts | 243° |
| 2026-05-04 22:53 | 51.04627 | -114.09208 | 4671 ft | 51 kts | 314° |
| 2026-05-04 22:54 | 51.04950 | -114.09541 | 4035 ft | 62 kts | 5° |
| 2026-05-04 22:54 | 51.05137 | -114.09055 | 3680 ft | 52 kts | 57° |
| 2026-05-04 22:54 | 51.05005 | -114.08532 | 3591 ft | 32 kts | 29° |
| 2026-05-04 22:54 | 51.04921 | -114.08509 | 3686 ft | 25 kts | 33° |
| 2026-05-04 22:55 | 51.05006 | -114.08582 | 3499 ft | 30 kts | 336° |
| 2026-05-04 22:55 | 51.05150 | -114.08381 | 3582 ft | 28 kts | 34° |
| 2026-05-04 22:55 | 51.05243 | -114.08001 | 3644 ft | 35 kts | 40° |
| 2026-05-04 22:55 | 51.05283 | -114.07692 | 3791 ft | 50 kts | 173° |
| 2026-05-04 22:56 | 51.04868 | -114.07816 | 3905 ft | 46 kts | 213° |
| 2026-05-04 22:56 | 51.04557 | -114.07854 | 3853 ft | 45 kts | 223° |
| 2026-05-04 22:56 | 51.04449 | -114.08131 | 3751 ft | 17 kts | 11° |
| 2026-05-04 22:56 | 51.04432 | -114.07763 | 3629 ft | 56 kts | 79° |
| 2026-05-04 22:57 | 51.04404 | -114.07111 | 3529 ft | 68 kts | 86° |
| 2026-05-04 22:57 | 51.04369 | -114.06701 | 3584 ft | 56 kts | 82° |
| 2026-05-04 22:57 | 51.04352 | -114.06336 | 3590 ft | 26 kts | 53° |
| 2026-05-04 22:57 | 51.04332 | -114.05913 | 3543 ft | 35 kts | 70° |
| 2026-05-04 22:58 | 51.04318 | -114.05481 | 3868 ft | 47 kts | 51° |
| 2026-05-04 22:58 | 51.04439 | -114.04920 | 4215 ft | 66 kts | 44° |
| 2026-05-04 22:58 | 51.04589 | -114.03796 | 3653 ft | 123 kts | 75° |
| 2026-05-04 22:58 | 51.04625 | -114.02915 | 3631 ft | 114 kts | 75° |
| 2026-05-04 22:59 | 51.04836 | -114.01962 | 3654 ft | 67 kts | 17° |
| 2026-05-04 22:59 | 51.05308 | -114.02008 | 3618 ft | 71 kts | 359° |
| 2026-05-04 22:59 | 51.05806 | -114.02283 | 3518 ft | 79 kts | 342° |
| 2026-05-04 22:59 | 51.06287 | -114.02633 | 3532 ft | 72 kts | 349° |
| 2026-05-04 23:00 | 51.06779 | -114.02637 | 3505 ft | 74 kts | 4° |
| 2026-05-04 23:00 | 51.07289 | -114.02639 | 3489 ft | 68 kts | 359° |
| 2026-05-04 23:00 | 51.07705 | -114.02900 | 3534 ft | 62 kts | 340° |
| 2026-05-04 23:00 | 51.08057 | -114.03292 | 3564 ft | 63 kts | 340° |
| 2026-05-04 23:01 | 51.08402 | -114.03663 | 3646 ft | 59 kts | 341° |
| 2026-05-04 23:01 | 51.08791 | -114.03916 | 3591 ft | 64 kts | 356° |
| 2026-05-04 23:01 | 51.09258 | -114.03981 | 3576 ft | 66 kts | 0° |
| 2026-05-04 23:01 | 51.09722 | -114.04150 | 3533 ft | 75 kts | 342° |
| 2026-05-04 23:02 | 51.10192 | -114.04539 | 3516 ft | 74 kts | 353° |
| 2026-05-04 23:02 | 51.10697 | -114.04680 | 3504 ft | 75 kts | 358° |
| 2026-05-04 23:02 | 51.11195 | -114.04739 | 3541 ft | 72 kts | 10° |
| 2026-05-04 23:02 | 51.11696 | -114.04679 | 3538 ft | 71 kts | 1° |
| 2026-05-04 23:03 | 51.12174 | -114.04577 | 3556 ft | 70 kts | 13° |
| 2026-05-04 23:03 | 51.12647 | -114.04550 | 3566 ft | 69 kts | 353° |
| 2026-05-04 23:03 | 51.13119 | -114.04494 | 3508 ft | 71 kts | 18° |
| 2026-05-04 23:03 | 51.13528 | -114.04172 | 3575 ft | 62 kts | 25° |
| 2026-05-04 23:04 | 51.13892 | -114.03763 | 3632 ft | 63 kts | 33° |
| 2026-05-04 23:04 | 51.13990 | -114.03027 | 3739 ft | 76 kts | 78° |
| 2026-05-04 23:04 | 51.13745 | -114.02507 | 3873 ft | 54 kts | 205° |
| 2026-05-04 23:04 | 51.13441 | -114.02517 | 3635 ft | 17 kts | 156° |
| 2026-05-04 23:05 | 51.13223 | -114.02609 | 4158 ft | 26 kts | 58° |
| 2026-05-04 23:05 | 51.13068 | -114.02704 | 3861 ft | 10 kts | 25° |
| 2026-05-04 23:05 | 51.13246 | -114.02629 | 3732 ft | 36 kts | 9° |
| 2026-05-04 23:05 | 51.13334 | -114.02653 | 3750 ft | 11 kts | 39° |
| 2026-05-04 23:06 | 51.13360 | -114.02534 | 3602 ft | 6 kts | 323° |
| 2026-05-04 23:06 | 51.13423 | -114.02616 | 3566 ft | 4 kts | 4° |
| 2026-05-04 23:06 | 51.13418 | -114.02630 | 3553 ft | 0 kts | 50° |